createdAt,value
2024-04-24T00:00:16.047Z,97488.56
2024-04-24T00:02:42.926Z,97484.81
2024-04-24T00:05:09.772Z,97480.72
2024-04-24T00:07:36.790Z,97471.31
2024-04-24T00:10:03.839Z,97467.84
2024-04-24T00:12:30.983Z,97469.13
2024-04-24T00:14:57.870Z,97470.84
2024-04-24T00:17:24.794Z,97457.19
2024-04-24T00:19:51.651Z,97458.31
2024-04-24T00:22:18.548Z,97458.41
2024-04-24T00:24:45.301Z,97451.19
2024-04-24T00:27:20.604Z,97444.97
2024-04-24T00:29:47.602Z,97441.47
2024-04-24T00:32:14.612Z,97446.53
2024-04-24T00:34:41.428Z,97446.44
2024-04-24T00:37:08.261Z,97438.91
2024-04-24T00:39:35.082Z,97431.66
2024-04-24T00:42:01.865Z,97438.72
2024-04-24T00:44:28.734Z,97435.56
2024-04-24T00:46:57.618Z,97430.91
2024-04-24T00:49:26.575Z,97423.69
2024-04-24T00:51:54.026Z,97432.19
2024-04-24T00:54:21.096Z,97419.94
2024-04-24T00:56:47.938Z,97425.88
2024-04-24T00:59:15.128Z,97424.88
2024-04-24T01:01:42.119Z,97411.19
2024-04-24T01:04:09.056Z,97414.41
2024-04-24T01:06:35.982Z,97412.00
2024-04-24T01:09:02.873Z,97416.56
2024-04-24T01:11:32.653Z,97407.16
2024-04-24T01:13:59.953Z,97401.56
2024-04-24T01:16:32.626Z,97407.94
2024-04-24T01:19:03.190Z,97406.47
2024-04-24T01:21:52.522Z,97404.56
2024-04-24T01:24:26.567Z,97395.59
2024-04-24T01:26:53.782Z,97402.06
2024-04-24T01:29:20.807Z,97404.63
2024-04-24T01:31:47.943Z,97394.81
2024-04-24T01:34:16.044Z,97401.34
2024-04-24T01:36:42.958Z,97395.31
2024-04-24T01:39:09.788Z,97392.69
2024-04-24T01:41:36.616Z,97391.28
2024-04-24T01:44:03.450Z,97382.66
2024-04-24T01:46:30.448Z,97386.53
2024-04-24T01:48:57.394Z,97393.16
2024-04-24T01:51:24.237Z,97386.78
2024-04-24T01:53:52.251Z,97394.44
2024-04-24T01:56:19.288Z,97380.28
2024-04-24T01:58:46.286Z,97378.06
2024-04-24T02:01:13.396Z,97384.88
2024-04-24T02:03:40.227Z,97380.41
2024-04-24T02:06:07.073Z,97384.38
2024-04-24T02:08:35.728Z,97382.31
2024-04-24T02:11:02.835Z,97379.50
2024-04-24T02:13:29.737Z,97371.13
2024-04-24T02:15:56.823Z,97379.31
2024-04-24T02:18:23.738Z,97375.19
2024-04-24T02:20:50.655Z,97379.06
2024-04-24T02:23:22.013Z,97380.38
2024-04-24T02:25:50.014Z,97367.94
2024-04-24T02:28:17.054Z,97372.72
2024-04-24T02:30:44.007Z,97359.97
2024-04-24T02:33:11.018Z,97360.66
2024-04-24T02:35:37.982Z,97363.16
2024-04-24T02:38:05.034Z,97368.59
2024-04-24T02:40:31.891Z,97356.34
2024-04-24T02:42:58.641Z,97355.28
2024-04-24T02:45:25.607Z,97353.63
2024-04-24T02:47:52.606Z,97351.34
2024-04-24T02:50:21.034Z,97345.09
2024-04-24T02:52:48.019Z,97349.34
2024-04-24T02:55:14.915Z,97357.38
2024-04-24T02:57:41.779Z,97344.94
2024-04-24T03:00:09.001Z,97341.25
2024-04-24T03:02:37.357Z,97347.06
2024-04-24T03:05:04.451Z,97342.00
2024-04-24T03:07:31.315Z,97339.28
2024-04-24T03:09:58.133Z,97330.16
2024-04-24T03:12:26.650Z,97329.34
2024-04-24T03:14:53.738Z,97333.94
2024-04-24T03:17:20.992Z,97322.47
2024-04-24T03:19:47.932Z,97329.50
2024-04-24T03:22:14.773Z,97325.44
2024-04-24T03:24:44.188Z,97330.41
2024-04-24T03:27:11.002Z,97326.47
2024-04-24T03:29:39.658Z,97321.28
2024-04-24T03:32:06.662Z,97321.13
2024-04-24T03:34:33.581Z,97317.94
2024-04-24T03:37:00.394Z,97314.72
2024-04-24T03:39:27.201Z,97309.63
2024-04-24T03:41:54.000Z,97309.03
2024-04-24T03:44:21.085Z,97314.25
2024-04-24T03:46:47.922Z,97317.00
2024-04-24T03:49:14.764Z,97302.31
2024-04-24T03:51:41.566Z,97304.31
2024-04-24T03:54:08.452Z,97298.63
2024-04-24T03:56:35.228Z,97304.69
2024-04-24T03:59:03.190Z,97303.38
2024-04-24T04:01:30.068Z,97307.09
2024-04-24T04:03:59.240Z,97306.09
2024-04-24T04:06:27.583Z,97297.81
2024-04-24T04:08:54.435Z,97299.59
2024-04-24T04:11:21.307Z,97307.25
2024-04-24T04:13:48.378Z,97306.50
2024-04-24T04:16:15.317Z,97314.06
2024-04-24T04:18:42.291Z,97295.66
2024-04-24T04:21:09.215Z,97291.56
2024-04-24T04:23:35.981Z,97298.53
2024-04-24T04:26:02.923Z,97274.97
2024-04-24T04:28:29.756Z,97301.41
2024-04-24T04:30:56.648Z,97290.88
2024-04-24T04:33:23.506Z,97285.50
2024-04-24T04:35:50.579Z,97290.66
2024-04-24T04:38:17.418Z,97283.50
2024-04-24T04:40:47.076Z,97285.91
2024-04-24T04:43:14.138Z,97292.22
2024-04-24T04:45:41.004Z,97294.78
2024-04-24T04:48:08.667Z,97291.72
2024-04-24T04:50:35.790Z,97287.47
2024-04-24T04:53:02.558Z,97294.34
2024-04-24T04:55:29.947Z,97294.84
2024-04-24T04:58:02.164Z,97297.81
2024-04-24T05:00:29.014Z,97296.06
2024-04-24T05:02:55.864Z,97295.59
2024-04-24T05:05:23.541Z,97295.47
2024-04-24T05:07:50.495Z,97289.56
2024-04-24T05:10:17.272Z,97298.38
2024-04-24T05:12:44.176Z,97296.88
2024-04-24T05:15:11.041Z,97296.25
2024-04-24T05:17:38.337Z,97299.50
2024-04-24T05:20:06.393Z,97300.53
2024-04-24T05:22:41.419Z,97303.97
2024-04-24T05:25:08.445Z,97309.13
2024-04-24T05:27:53.784Z,97301.59
2024-04-24T05:30:20.717Z,97301.88
2024-04-24T05:32:50.822Z,97300.91
2024-04-24T05:35:17.845Z,97299.19
2024-04-24T05:37:45.458Z,97293.53
2024-04-24T05:40:12.325Z,97296.72
2024-04-24T05:42:39.105Z,97299.81
2024-04-24T05:45:06.307Z,97305.38
2024-04-24T05:47:33.228Z,97299.34
2024-04-24T05:50:01.128Z,97311.47
2024-04-24T05:52:27.994Z,97298.72
2024-04-24T05:54:54.835Z,97300.22
2024-04-24T05:57:27.223Z,97294.56
2024-04-24T05:59:55.877Z,97298.81
2024-04-24T06:02:22.900Z,97297.63
2024-04-24T06:04:52.122Z,97307.13
2024-04-24T06:07:19.402Z,97309.94
2024-04-24T06:09:46.360Z,97309.28
2024-04-24T06:12:13.365Z,97304.16
2024-04-24T06:14:40.466Z,97315.13
2024-04-24T06:17:07.387Z,97301.88
2024-04-24T06:19:34.400Z,97304.25
2024-04-24T06:22:01.422Z,97300.59
2024-04-24T06:24:28.303Z,97305.81
2024-04-24T06:26:55.464Z,97303.69
2024-04-24T06:29:23.539Z,97300.28
2024-04-24T06:31:50.447Z,97289.72
2024-04-24T06:34:17.600Z,97290.28
2024-04-24T06:36:44.474Z,97293.47
2024-04-24T06:39:11.432Z,97302.63
2024-04-24T06:41:38.298Z,97301.13
2024-04-24T06:44:05.370Z,97296.16
2024-04-24T06:46:32.193Z,97300.88
2024-04-24T06:48:59.111Z,97302.66
2024-04-24T06:51:25.893Z,97297.81
2024-04-24T06:53:52.733Z,97297.13
2024-04-24T06:56:20.177Z,97292.94
2024-04-24T06:58:47.335Z,97290.63
2024-04-24T07:01:14.171Z,97288.31
2024-04-24T07:03:41.327Z,97291.34
2024-04-24T07:06:08.507Z,97284.34
2024-04-24T07:08:35.368Z,97278.38
2024-04-24T07:11:02.348Z,97282.00
2024-04-24T07:13:29.330Z,97296.94
2024-04-24T07:15:56.352Z,97292.97
2024-04-24T07:18:23.260Z,97283.75
2024-04-24T07:20:50.289Z,97284.56
2024-04-24T07:23:17.955Z,97288.88
2024-04-24T07:25:44.949Z,97280.59
2024-04-24T07:28:12.065Z,97293.13
2024-04-24T07:30:38.898Z,97289.72
2024-04-24T07:33:05.920Z,97289.25
2024-04-24T07:35:33.690Z,97281.66
2024-04-24T07:38:00.805Z,97291.81
2024-04-24T07:40:27.656Z,97289.94
2024-04-24T07:42:54.900Z,97285.53
2024-04-24T07:45:21.628Z,97280.03
2024-04-24T07:47:48.623Z,97287.13
2024-04-24T07:50:15.793Z,97287.38
2024-04-24T07:52:42.762Z,97287.72
2024-04-24T07:55:09.564Z,97272.75
2024-04-24T07:57:36.583Z,97283.03
2024-04-24T08:00:03.687Z,97285.56
2024-04-24T08:02:38.905Z,97282.63
2024-04-24T08:05:06.449Z,97282.25
2024-04-24T08:07:36.160Z,97283.13
2024-04-24T08:10:03.182Z,97277.78
2024-04-24T08:12:30.135Z,97288.75
2024-04-24T08:14:57.096Z,97286.63
2024-04-24T08:17:26.036Z,97297.03
2024-04-24T08:19:53.399Z,97292.13
2024-04-24T08:22:20.451Z,97297.22
2024-04-24T08:24:47.711Z,97296.75
2024-04-24T08:27:14.755Z,97305.41
2024-04-24T08:29:42.129Z,97288.66
2024-04-24T08:32:09.463Z,97289.44
2024-04-24T08:34:37.236Z,97281.25
2024-04-24T08:37:04.182Z,97287.53
2024-04-24T08:39:31.144Z,97290.16
2024-04-24T08:42:00.276Z,97292.41
2024-04-24T08:44:29.087Z,97289.59
2024-04-24T08:46:57.668Z,97285.69
2024-04-24T08:49:25.626Z,97282.50
2024-04-24T08:51:54.895Z,97278.41
2024-04-24T08:54:25.590Z,97285.56
2024-04-24T08:57:01.301Z,97278.66
2024-04-24T08:59:30.576Z,97278.75
2024-04-24T09:02:08.493Z,97281.47
2024-04-24T09:04:36.984Z,97271.03
2024-04-24T09:07:04.568Z,97269.56
2024-04-24T09:09:32.003Z,97266.88
2024-04-24T09:12:02.275Z,97265.53
2024-04-24T09:14:31.181Z,97266.63
2024-04-24T09:16:58.145Z,97257.78
2024-04-24T09:19:25.190Z,97266.63
2024-04-24T09:21:52.028Z,97257.28
2024-04-24T09:24:20.039Z,97255.94
2024-04-24T09:26:51.403Z,97268.41
2024-04-24T09:29:18.498Z,97266.81
2024-04-24T09:31:45.290Z,97256.25
2024-04-24T09:34:12.415Z,97252.84
2024-04-24T09:36:42.927Z,97239.03
2024-04-24T09:39:11.463Z,97236.75
2024-04-24T09:41:42.518Z,97233.88
2024-04-24T09:44:14.163Z,97241.22
2024-04-24T09:46:49.383Z,97238.50
2024-04-24T09:49:16.677Z,97232.53
2024-04-24T09:51:43.681Z,97223.03
2024-04-24T09:54:10.680Z,97225.50
2024-04-24T09:56:46.959Z,97233.09
2024-04-24T09:59:14.801Z,97232.03
2024-04-24T10:01:51.072Z,97223.06
2024-04-24T10:04:18.565Z,97219.28
2024-04-24T10:06:47.630Z,97226.72
2024-04-24T10:09:20.835Z,97222.38
2024-04-24T10:11:57.442Z,97208.97
2024-04-24T10:14:26.373Z,97214.63
2024-04-24T10:16:54.002Z,97214.22
2024-04-24T10:19:22.406Z,97217.63
2024-04-24T10:21:50.133Z,97216.41
2024-04-24T10:24:18.936Z,97214.22
2024-04-24T10:26:47.465Z,97211.25
2024-04-24T10:29:14.782Z,97218.84
2024-04-24T10:31:43.794Z,97208.66
2024-04-24T10:34:12.103Z,97200.66
2024-04-24T10:36:39.118Z,97211.25
2024-04-24T10:39:06.052Z,97207.31
2024-04-24T10:41:33.757Z,97195.84
2024-04-24T10:44:01.984Z,97204.53
2024-04-24T10:46:29.759Z,97199.00
2024-04-24T10:48:58.104Z,97204.28
2024-04-24T10:51:32.954Z,97199.66
2024-04-24T10:54:15.714Z,97207.56
2024-04-24T10:56:43.892Z,97192.50
2024-04-24T10:59:11.250Z,97202.00
2024-04-24T11:01:52.273Z,97195.56
2024-04-24T11:04:24.737Z,97190.81
2024-04-24T11:06:51.975Z,97200.31
2024-04-24T11:09:21.233Z,97197.69
2024-04-24T11:11:50.708Z,97199.97
2024-04-24T11:14:17.881Z,97191.22
2024-04-24T11:16:58.347Z,97189.84
2024-04-24T11:19:25.483Z,97192.22
2024-04-24T11:21:54.018Z,97180.19
2024-04-24T11:24:32.503Z,97199.91
2024-04-24T11:27:00.581Z,97186.84
2024-04-24T11:29:27.613Z,97185.03
2024-04-24T11:31:57.043Z,97179.84
2024-04-24T11:34:24.324Z,97176.69
2024-04-24T11:36:51.868Z,97175.72
2024-04-24T11:39:21.476Z,97173.16
2024-04-24T11:41:50.569Z,97180.38
2024-04-24T11:44:17.760Z,97158.22
2024-04-24T11:46:48.224Z,97177.38
2024-04-24T11:49:19.335Z,97173.44
2024-04-24T11:51:51.039Z,97170.03
2024-04-24T11:54:17.961Z,97168.19
2024-04-24T11:56:46.570Z,97166.53
2024-04-24T11:59:17.835Z,97161.31
2024-04-24T12:01:45.117Z,97166.47
2024-04-24T12:04:11.973Z,97164.13
2024-04-24T12:06:43.377Z,97164.59
2024-04-24T12:09:16.050Z,97155.72
2024-04-24T12:11:45.258Z,97158.94
2024-04-24T12:14:14.851Z,97159.09
2024-04-24T12:16:43.079Z,97148.97
2024-04-24T12:19:10.346Z,97157.09
2024-04-24T12:21:37.318Z,97155.19
2024-04-24T12:24:04.302Z,97155.84
2024-04-24T12:26:31.638Z,97159.09
2024-04-24T12:28:58.952Z,97159.25
2024-04-24T12:31:25.849Z,97155.56
2024-04-24T12:33:52.898Z,97154.22
2024-04-24T12:36:19.849Z,97151.50
2024-04-24T12:38:46.826Z,97149.06
2024-04-24T12:41:13.870Z,97141.72
2024-04-24T12:43:40.770Z,97150.25
2024-04-24T12:46:07.653Z,97148.91
2024-04-24T12:48:35.587Z,97156.72
2024-04-24T12:51:07.747Z,97149.25
2024-04-24T12:53:34.646Z,97139.56
2024-04-24T12:56:01.526Z,97149.06
2024-04-24T12:58:28.389Z,97141.38
2024-04-24T13:00:55.370Z,97144.13
2024-04-24T13:03:22.378Z,97138.34
2024-04-24T13:05:49.434Z,97141.56
2024-04-24T13:08:16.373Z,97143.50
2024-04-24T13:10:43.251Z,97144.63
2024-04-24T13:13:10.149Z,97146.91
2024-04-24T13:15:38.083Z,97147.88
2024-04-24T13:18:05.445Z,97137.81
2024-04-24T13:20:32.506Z,97140.28
2024-04-24T13:22:59.653Z,97140.13
2024-04-24T13:25:26.567Z,97129.63
2024-04-24T13:27:53.373Z,97132.34
2024-04-24T13:30:20.730Z,97138.72
2024-04-24T13:32:47.671Z,97130.78
2024-04-24T13:35:15.542Z,97135.97
2024-04-24T13:37:43.785Z,97133.69
2024-04-24T13:40:10.820Z,97125.63
2024-04-24T13:42:37.633Z,97126.28
2024-04-24T13:45:05.208Z,97128.69
2024-04-24T13:47:32.259Z,97134.25
2024-04-24T13:49:59.109Z,97136.31
2024-04-24T13:52:26.014Z,97121.91
2024-04-24T13:54:52.745Z,97128.91
2024-04-24T13:57:19.674Z,97132.06
2024-04-24T13:59:46.723Z,97132.75
2024-04-24T14:02:13.647Z,97121.47
2024-04-24T14:04:40.486Z,97115.31
2024-04-24T14:07:07.475Z,97112.03
2024-04-24T14:09:34.303Z,97109.91
2024-04-24T14:12:01.411Z,97118.78
2024-04-24T14:14:30.496Z,97114.00
2024-04-24T14:16:57.435Z,97099.31
2024-04-24T14:19:24.269Z,97106.31
2024-04-24T14:21:51.348Z,97110.53
2024-04-24T14:24:18.450Z,97109.19
2024-04-24T14:26:45.361Z,97111.88
2024-04-24T14:29:14.880Z,97108.41
2024-04-24T14:31:43.071Z,97108.84
2024-04-24T14:34:11.016Z,97107.88
2024-04-24T14:36:38.192Z,97097.69
2024-04-24T14:39:04.979Z,97089.31
2024-04-24T14:41:31.844Z,97087.50
2024-04-24T14:43:58.967Z,97097.66
2024-04-24T14:46:25.969Z,97088.00
2024-04-24T14:48:53.009Z,97087.38
2024-04-24T14:51:20.008Z,97083.19
2024-04-24T14:53:46.993Z,97079.66
2024-04-24T14:56:14.064Z,97079.91
2024-04-24T14:58:40.882Z,97079.13
2024-04-24T15:01:07.893Z,97086.25
2024-04-24T15:03:34.765Z,97079.13
2024-04-24T15:06:05.465Z,97094.22
2024-04-24T15:08:32.561Z,97090.00
2024-04-24T15:11:05.567Z,97078.94
2024-04-24T15:13:32.643Z,97081.28
2024-04-24T15:15:59.412Z,97080.34
2024-04-24T15:18:28.903Z,97082.97
2024-04-24T15:20:56.297Z,97077.78
2024-04-24T15:23:23.238Z,97085.72
2024-04-24T15:25:50.218Z,97075.06
2024-04-24T15:28:17.345Z,97077.81
2024-04-24T15:30:44.113Z,97080.09
2024-04-24T15:33:11.522Z,97073.00
2024-04-24T15:35:38.945Z,97075.09
2024-04-24T15:38:05.817Z,97079.78
2024-04-24T15:40:32.551Z,97084.03
2024-04-24T15:42:59.466Z,97083.50
2024-04-24T15:45:27.049Z,97081.41
2024-04-24T15:47:54.252Z,97081.91
2024-04-24T15:50:21.266Z,97077.69
2024-04-24T15:52:48.238Z,97067.94
2024-04-24T15:55:15.020Z,97080.19
2024-04-24T15:57:42.722Z,97080.50
2024-04-24T16:00:10.290Z,97082.63
2024-04-24T16:02:39.944Z,97078.59
2024-04-24T16:05:06.982Z,97081.81
2024-04-24T16:07:33.827Z,97091.53
2024-04-24T16:10:02.014Z,97092.06
2024-04-24T16:12:29.877Z,97095.28
2024-04-24T16:14:56.720Z,97095.59
2024-04-24T16:17:23.743Z,97087.13
2024-04-24T16:19:50.788Z,97109.50
2024-04-24T16:22:17.697Z,97098.97
2024-04-24T16:24:44.659Z,97107.22
2024-04-24T16:27:11.787Z,97107.06
2024-04-24T16:29:41.155Z,97093.47
2024-04-24T16:32:09.048Z,97110.91
2024-04-24T16:34:36.459Z,97113.03
2024-04-24T16:37:03.353Z,97110.84
2024-04-24T16:39:30.094Z,97126.56
2024-04-24T16:41:57.130Z,97119.53
2024-04-24T16:44:23.954Z,97123.09
2024-04-24T16:46:50.965Z,97123.00
2024-04-24T16:49:18.157Z,97139.09
2024-04-24T16:51:45.126Z,97146.75
2024-04-24T16:54:11.924Z,97141.19
2024-04-24T16:56:38.993Z,97149.66
2024-04-24T16:59:05.913Z,97149.13
2024-04-24T17:01:34.224Z,97152.41
2024-04-24T17:04:01.283Z,97160.41
2024-04-24T17:06:28.144Z,97151.19
2024-04-24T17:08:54.894Z,97160.41
2024-04-24T17:11:21.929Z,97153.34
2024-04-24T17:13:48.892Z,97163.38
2024-04-24T17:16:15.716Z,97160.03
2024-04-24T17:18:42.794Z,97167.09
2024-04-24T17:21:10.098Z,97169.69
2024-04-24T17:23:37.212Z,97176.94
2024-04-24T17:26:04.439Z,97174.34
2024-04-24T17:28:31.252Z,97177.31
2024-04-24T17:30:58.128Z,97183.63
2024-04-24T17:33:25.067Z,97178.59
2024-04-24T17:35:52.842Z,97187.13
2024-04-24T17:38:19.875Z,97182.13
2024-04-24T17:40:47.034Z,97177.50
2024-04-24T17:43:13.886Z,97189.31
2024-04-24T17:45:40.739Z,97196.16
2024-04-24T17:48:09.752Z,97201.31
2024-04-24T17:50:36.882Z,97202.81
2024-04-24T17:53:04.806Z,97204.97
2024-04-24T17:55:31.733Z,97210.41
2024-04-24T17:57:59.958Z,97207.97
2024-04-24T18:00:27.093Z,97202.00
2024-04-24T18:02:53.921Z,97217.78
2024-04-24T18:05:22.803Z,97226.03
2024-04-24T18:07:50.791Z,97225.50
2024-04-24T18:10:17.712Z,97233.66
2024-04-24T18:12:46.094Z,97240.03
2024-04-24T18:15:13.182Z,97238.56
2024-04-24T18:17:40.249Z,97247.09
2024-04-24T18:20:07.993Z,97250.50
2024-04-24T18:22:35.411Z,97245.59
2024-04-24T18:25:02.613Z,97250.50
2024-04-24T18:27:30.174Z,97252.41
2024-04-24T18:29:57.113Z,97265.16
2024-04-24T18:32:24.140Z,97265.03
2024-04-24T18:34:50.954Z,97272.63
2024-04-24T18:37:18.087Z,97274.69
2024-04-24T18:39:44.979Z,97271.16
2024-04-24T18:42:12.222Z,97274.53
2024-04-24T18:44:39.111Z,97286.63
2024-04-24T18:47:06.087Z,97283.91
2024-04-24T18:49:33.678Z,97288.34
2024-04-24T18:52:01.034Z,97287.69
2024-04-24T18:54:28.038Z,97293.25
2024-04-24T18:56:54.903Z,97300.03
2024-04-24T18:59:21.801Z,97293.66
2024-04-24T19:01:48.717Z,97301.66
2024-04-24T19:04:16.275Z,97310.91
2024-04-24T19:06:43.281Z,97304.25
2024-04-24T19:09:11.528Z,97297.72
2024-04-24T19:11:38.777Z,97296.47
2024-04-24T19:14:05.810Z,97312.78
2024-04-24T19:16:35.572Z,97309.25
2024-04-24T19:19:02.538Z,97312.22
2024-04-24T19:21:29.367Z,97309.22
2024-04-24T19:23:56.322Z,97316.69
2024-04-24T19:26:23.512Z,97319.38
2024-04-24T19:28:51.967Z,97323.84
2024-04-24T19:31:30.980Z,97317.06
2024-04-24T19:33:59.804Z,97320.47
2024-04-24T19:36:27.612Z,97330.91
2024-04-24T19:38:55.253Z,97325.22
2024-04-24T19:41:22.375Z,97333.50
2024-04-24T19:43:49.488Z,97325.38
2024-04-24T19:46:16.896Z,97325.53
2024-04-24T19:48:44.896Z,97331.06
2024-04-24T19:51:13.864Z,97332.03
2024-04-24T19:53:40.786Z,97332.38
2024-04-24T19:56:08.160Z,97339.75
2024-04-24T19:58:35.220Z,97342.34
2024-04-24T20:01:11.314Z,97340.56
2024-04-24T20:03:39.381Z,97344.91
2024-04-24T20:06:09.930Z,97344.59
2024-04-24T20:08:37.520Z,97341.06
2024-04-24T20:11:05.559Z,97351.72
2024-04-24T20:13:34.034Z,97349.69
2024-04-24T20:16:08.506Z,97356.47
2024-04-24T20:18:38.426Z,97354.38
2024-04-24T20:21:13.643Z,97354.16
2024-04-24T20:23:40.792Z,97358.34
2024-04-24T20:26:25.080Z,97353.31
2024-04-24T20:28:54.135Z,97363.34
2024-04-24T20:31:27.907Z,97363.03
2024-04-24T20:33:57.850Z,97366.53
2024-04-24T20:36:27.995Z,97373.09
2024-04-24T20:39:01.206Z,97369.47
2024-04-24T20:41:31.123Z,97373.03
2024-04-24T20:43:58.514Z,97371.84
2024-04-24T20:46:25.594Z,97377.47
2024-04-24T20:48:52.593Z,97374.63
2024-04-24T20:51:20.116Z,97369.22
2024-04-24T20:53:47.150Z,97370.53
2024-04-24T20:56:17.269Z,97380.22
2024-04-24T20:58:44.540Z,97375.31
2024-04-24T21:01:11.447Z,97372.38
2024-04-24T21:03:38.899Z,97378.91
2024-04-24T21:06:07.303Z,97380.53
2024-04-24T21:08:37.681Z,97377.25
2024-04-24T21:11:05.851Z,97367.69
2024-04-24T21:13:33.025Z,97387.63
2024-04-24T21:16:00.164Z,97386.94
2024-04-24T21:18:27.285Z,97384.78
2024-04-24T21:20:57.246Z,97392.06
2024-04-24T21:23:24.151Z,97388.91
2024-04-24T21:25:51.120Z,97391.25
2024-04-24T21:28:17.883Z,97388.81
2024-04-24T21:30:46.633Z,97382.63
2024-04-24T21:33:13.952Z,97382.38
2024-04-24T21:35:41.190Z,97374.91
2024-04-24T21:38:08.065Z,97377.38
2024-04-24T21:40:35.531Z,97379.72
2024-04-24T21:43:02.383Z,97385.00
2024-04-24T21:45:29.255Z,97372.88
2024-04-24T21:47:56.306Z,97371.94
2024-04-24T21:50:23.414Z,97367.63
2024-04-24T21:52:50.209Z,97382.63
2024-04-24T21:55:17.060Z,97376.41
2024-04-24T21:57:43.891Z,97376.75
2024-04-24T22:00:11.145Z,97392.06
2024-04-24T22:02:40.754Z,97382.09
2024-04-24T22:05:07.804Z,97403.13
2024-04-24T22:07:34.610Z,97386.09
2024-04-24T22:10:01.564Z,97402.22
2024-04-24T22:12:28.366Z,97403.94
2024-04-24T22:14:55.375Z,97399.97
2024-04-24T22:17:27.625Z,97406.72
2024-04-24T22:19:55.637Z,97399.59
2024-04-24T22:22:23.709Z,97407.50
2024-04-24T22:24:53.112Z,97408.72
2024-04-24T22:27:21.317Z,97400.28
2024-04-24T22:29:48.366Z,97399.25
2024-04-24T22:32:15.229Z,97392.13
2024-04-24T22:34:42.225Z,97397.50
2024-04-24T22:37:09.312Z,97410.19
2024-04-24T22:39:36.462Z,97404.53
2024-04-24T22:42:04.825Z,97409.13
2024-04-24T22:44:32.204Z,97407.28
2024-04-24T22:46:59.146Z,97409.25
2024-04-24T22:49:26.318Z,97418.38
2024-04-24T22:51:53.259Z,97422.97
2024-04-24T22:54:20.185Z,97414.69
2024-04-24T22:56:47.006Z,97417.81
2024-04-24T22:59:13.939Z,97423.66
2024-04-24T23:01:40.835Z,97418.09
2024-04-24T23:04:09.532Z,97418.63
2024-04-24T23:06:37.128Z,97423.63
2024-04-24T23:09:03.998Z,97424.19
2024-04-24T23:11:30.866Z,97423.53
2024-04-24T23:13:57.919Z,97422.97
2024-04-24T23:16:24.821Z,97420.09
2024-04-24T23:18:51.691Z,97430.72
2024-04-24T23:21:18.609Z,97424.81
2024-04-24T23:23:45.474Z,97427.88
2024-04-24T23:26:12.327Z,97420.44
2024-04-24T23:28:39.350Z,97424.22
2024-04-24T23:31:06.637Z,97425.47
2024-04-24T23:33:33.775Z,97421.41
2024-04-24T23:36:04.936Z,97421.41
2024-04-24T23:38:34.988Z,97420.16
2024-04-24T23:41:02.383Z,97420.13
2024-04-24T23:43:29.512Z,97418.19
2024-04-24T23:45:56.380Z,97419.75
2024-04-24T23:48:23.254Z,97426.34
2024-04-24T23:50:51.267Z,97415.28
2024-04-24T23:53:18.049Z,97422.69
2024-04-24T23:55:44.923Z,97425.50
2024-04-24T23:58:11.751Z,97424.72
